Time;durP1;ratioP1;P1;durP2;ratioP2;P2;SDS_P1;SDS_P2;PMS_P1;PMS_P2;Temp;Humidity;BMP_temperature;BMP_pressure;BME280_temperature;BME280_humidity;BME280_pressure;Samples;Min_cycle;Max_cycle;Signal;HPM_P1;HPM_P2
2021/09/04 00:02:18;;;;;;;11.63;5.85;;;;;;;;;;5050207;28;20464;-55
2021/09/04 00:04:44;;;;;;;10.63;5.53;;;;;;;;;;5062128;28;20869;-54
2021/09/04 00:07:10;;;;;;;10.98;5.68;;;;;;;;;;5060886;28;20385;-56
2021/09/04 00:09:36;;;;;;;10.02;5.22;;;;;;;;;;5061987;28;20392;-58
2021/09/04 00:12:03;;;;;;;10.25;5.95;;;;;;;;;;5059423;28;20388;-58
2021/09/04 00:14:29;;;;;;;10.43;5.47;;;;;;;;;;5060233;28;20789;-56
2021/09/04 00:16:55;;;;;;;11.60;5.60;;;;;;;;;;5060565;28;20410;-54
2021/09/04 00:19:21;;;;;;;8.30;4.85;;;;;;;;;;5060718;28;20385;-52
2021/09/04 00:21:47;;;;;;;12.38;6.25;;;;;;;;;;5050998;28;20797;-53
2021/09/04 00:24:13;;;;;;;10.57;5.80;;;;;;;;;;5051488;28;20407;-53
2021/09/04 00:26:39;;;;;;;10.90;5.50;;;;;;;;;;5058951;28;20386;-53
2021/09/04 00:29:05;;;;;;;10.38;5.75;;;;;;;;;;5048226;28;20427;-56
2021/09/04 00:31:31;;;;;;;11.82;7.05;;;;;;;;;;5047892;28;20404;-53
2021/09/04 00:33:57;;;;;;;12.15;5.78;;;;;;;;;;5046448;28;20405;-51
2021/09/04 00:36:23;;;;;;;11.90;6.47;;;;;;;;;;5053491;28;21157;-55
2021/09/04 00:38:49;;;;;;;13.02;6.65;;;;;;;;;;5040593;28;20944;-57
2021/09/04 00:41:19;;;;;;;13.10;6.67;;;;;;;;;;5042326;28;20441;-55
2021/09/04 00:43:45;;;;;;;12.82;6.50;;;;;;;;;;5047434;28;20781;-58
2021/09/04 00:46:11;;;;;;;13.93;7.35;;;;;;;;;;5056447;28;20401;-55
2021/09/04 00:48:38;;;;;;;12.48;6.82;;;;;;;;;;5053001;28;20449;-55
2021/09/04 00:51:04;;;;;;;11.97;6.40;;;;;;;;;;5050857;28;20452;-55
2021/09/04 00:53:30;;;;;;;12.80;6.18;;;;;;;;;;5046599;28;20552;-57
2021/09/04 00:55:57;;;;;;;10.77;5.68;;;;;;;;;;5057324;28;20407;-53
2021/09/04 00:58:23;;;;;;;11.25;5.75;;;;;;;;;;5058231;28;20470;-56
2021/09/04 01:00:52;;;;;;;11.18;6.47;;;;;;;;;;5042800;28;20414;-56
2021/09/04 01:03:19;;;;;;;9.50;5.00;;;;;;;;;;5050906;28;20409;-56
2021/09/04 01:05:48;;;;;;;10.15;5.90;;;;;;;;;;5049715;28;20836;-52
2021/09/04 01:08:14;;;;;;;10.50;5.67;;;;;;;;;;5043955;28;20603;-58
2021/09/04 01:10:40;;;;;;;9.90;5.70;;;;;;;;;;5048834;28;20481;-56
2021/09/04 01:13:06;;;;;;;12.35;6.53;;;;;;;;;;5054417;28;20380;-53
2021/09/04 01:15:32;;;;;;;10.70;5.47;;;;;;;;;;5048624;28;20766;-56
2021/09/04 01:18:02;;;;;;;13.23;5.80;;;;;;;;;;5048956;28;20752;-53
2021/09/04 01:20:28;;;;;;;12.57;6.47;;;;;;;;;;5048143;28;20798;-54
2021/09/04 01:22:54;;;;;;;13.15;6.55;;;;;;;;;;5047038;28;20440;-55
2021/09/04 01:25:23;;;;;;;11.63;6.18;;;;;;;;;;5047378;28;21103;-56
2021/09/04 01:27:50;;;;;;;12.60;6.80;;;;;;;;;;5043503;28;20425;-54
2021/09/04 01:30:16;;;;;;;12.87;6.73;;;;;;;;;;5039285;28;20389;-56
2021/09/04 01:32:42;;;;;;;12.85;6.43;;;;;;;;;;5046477;28;20474;-55
2021/09/04 01:35:09;;;;;;;12.10;6.05;;;;;;;;;;5057700;28;20836;-55
2021/09/04 01:37:35;;;;;;;12.80;6.88;;;;;;;;;;5061825;28;20511;-54
2021/09/04 01:40:01;;;;;;;15.00;7.33;;;;;;;;;;5055944;28;21047;-53
2021/09/04 01:42:27;;;;;;;12.23;6.25;;;;;;;;;;5043431;28;20408;-58
2021/09/04 01:44:54;;;;;;;13.05;6.88;;;;;;;;;;5049089;28;20410;-54
2021/09/04 01:47:20;;;;;;;14.50;6.77;;;;;;;;;;5045764;28;20397;-54
2021/09/04 01:49:46;;;;;;;15.02;7.07;;;;;;;;;;5053435;28;20404;-56
2021/09/04 01:52:12;;;;;;;14.48;7.03;;;;;;;;;;5047160;28;20391;-56
2021/09/04 01:54:38;;;;;;;12.88;6.82;;;;;;;;;;5052085;28;20392;-56
2021/09/04 01:57:04;;;;;;;13.68;6.88;;;;;;;;;;5055229;28;20395;-53
2021/09/04 01:59:29;;;;;;;12.10;6.50;;;;;;;;;;5058581;28;20738;-55
2021/09/04 02:01:55;;;;;;;12.75;6.60;;;;;;;;;;5048581;28;20385;-53
2021/09/04 02:04:21;;;;;;;10.77;5.87;;;;;;;;;;5053594;28;20399;-52
2021/09/04 02:06:47;;;;;;;12.85;6.78;;;;;;;;;;5051868;28;20410;-55
2021/09/04 02:09:13;;;;;;;14.00;7.05;;;;;;;;;;5051292;28;20409;-54
2021/09/04 02:11:39;;;;;;;11.13;6.07;;;;;;;;;;5039204;28;20414;-56
2021/09/04 02:14:05;;;;;;;12.95;5.97;;;;;;;;;;5054664;28;20955;-56
2021/09/04 02:16:31;;;;;;;11.32;5.88;;;;;;;;;;5040806;28;20441;-56
2021/09/04 02:18:57;;;;;;;11.20;5.97;;;;;;;;;;5056500;28;20470;-57
2021/09/04 02:21:23;;;;;;;12.50;6.57;;;;;;;;;;5066904;28;20379;-53
2021/09/04 02:23:49;;;;;;;11.45;5.70;;;;;;;;;;5062218;28;20410;-57
2021/09/04 02:26:15;;;;;;;9.63;5.18;;;;;;;;;;5040233;28;20413;-57
2021/09/04 02:28:41;;;;;;;11.90;5.82;;;;;;;;;;5048526;28;20401;-53
2021/09/04 02:31:07;;;;;;;11.80;6.30;;;;;;;;;;5046656;28;20406;-56
2021/09/04 02:33:33;;;;;;;11.73;6.07;;;;;;;;;;5067182;28;20494;-56
2021/09/04 02:35:59;;;;;;;10.77;5.82;;;;;;;;;;5039374;28;20883;-57
2021/09/04 02:38:25;;;;;;;9.38;5.15;;;;;;;;;;5048092;28;20890;-56
2021/09/04 02:40:51;;;;;;;11.13;5.55;;;;;;;;;;5054566;28;20547;-54
2021/09/04 02:43:17;;;;;;;9.75;5.10;;;;;;;;;;5043378;28;20401;-55
2021/09/04 02:45:43;;;;;;;10.70;5.47;;;;;;;;;;5045578;28;20408;-55
2021/09/04 02:48:09;;;;;;;12.20;6.53;;;;;;;;;;5039930;28;20403;-53
2021/09/04 02:50:34;;;;;;;10.00;5.32;;;;;;;;;;5043333;28;20494;-57
2021/09/04 02:53:03;;;;;;;12.45;5.82;;;;;;;;;;5057827;28;20408;-53
2021/09/04 02:55:31;;;;;;;10.10;5.40;;;;;;;;;;5046329;28;20395;-54
2021/09/04 02:57:57;;;;;;;12.25;6.40;;;;;;;;;;5049052;28;20451;-53
2021/09/04 03:00:23;;;;;;;11.98;5.97;;;;;;;;;;5045642;28;20941;-52
2021/09/04 03:02:50;;;;;;;12.45;6.53;;;;;;;;;;5041931;28;20410;-54
2021/09/04 03:05:18;;;;;;;11.95;6.43;;;;;;;;;;5053743;28;20484;-55
2021/09/04 03:07:43;;;;;;;17.03;7.67;;;;;;;;;;5052386;28;20499;-55
2021/09/04 03:10:10;;;;;;;13.52;6.82;;;;;;;;;;5053039;28;20876;-58
2021/09/04 03:12:36;;;;;;;12.90;6.37;;;;;;;;;;5041182;28;20399;-54
2021/09/04 03:15:02;;;;;;;13.48;6.53;;;;;;;;;;5053526;28;20858;-53
2021/09/04 03:17:28;;;;;;;11.98;6.25;;;;;;;;;;5047329;28;20502;-56
2021/09/04 03:19:54;;;;;;;11.95;6.18;;;;;;;;;;5049962;28;20387;-53
2021/09/04 03:22:20;;;;;;;14.20;6.57;;;;;;;;;;5048343;28;20389;-54
2021/09/04 03:24:46;;;;;;;15.13;7.88;;;;;;;;;;5053459;28;20403;-56
2021/09/04 03:27:12;;;;;;;11.88;6.30;;;;;;;;;;5044864;28;20416;-56
2021/09/04 03:29:38;;;;;;;15.73;7.75;;;;;;;;;;5046657;28;20406;-56
2021/09/04 03:32:04;;;;;;;16.02;7.97;;;;;;;;;;5054194;28;20404;-54
2021/09/04 03:34:30;;;;;;;14.98;7.18;;;;;;;;;;5051402;28;20409;-56
2021/09/04 03:36:56;;;;;;;15.00;7.40;;;;;;;;;;5047334;28;20877;-57
2021/09/04 03:39:22;;;;;;;12.27;6.13;;;;;;;;;;5042922;28;20409;-56
2021/09/04 03:41:48;;;;;;;14.95;7.47;;;;;;;;;;5051538;28;20389;-55
2021/09/04 03:44:14;;;;;;;14.30;6.95;;;;;;;;;;5050621;28;20400;-57
2021/09/04 03:46:40;;;;;;;17.20;7.32;;;;;;;;;;5040319;28;20393;-54
2021/09/04 03:49:06;;;;;;;15.27;7.68;;;;;;;;;;5051304;28;21248;-55
2021/09/04 03:51:32;;;;;;;15.55;7.65;;;;;;;;;;5051247;28;20405;-57
2021/09/04 03:53:59;;;;;;;15.60;8.02;;;;;;;;;;5055446;28;20961;-56
2021/09/04 03:56:25;;;;;;;15.45;8.02;;;;;;;;;;5050859;28;20479;-54
2021/09/04 03:58:51;;;;;;;16.42;8.32;;;;;;;;;;5053034;28;20403;-55
2021/09/04 04:01:18;;;;;;;17.27;8.13;;;;;;;;;;5056997;28;20389;-55
2021/09/04 04:03:44;;;;;;;13.88;7.20;;;;;;;;;;5044904;28;20407;-55
2021/09/04 04:06:10;;;;;;;16.52;7.75;;;;;;;;;;5057950;28;20391;-55
2021/09/04 04:08:36;;;;;;;13.65;6.72;;;;;;;;;;5050511;28;20412;-53
2021/09/04 04:11:09;;;;;;;16.13;7.53;;;;;;;;;;5052307;28;20900;-57
2021/09/04 04:13:35;;;;;;;17.05;7.95;;;;;;;;;;5041854;28;20394;-57
2021/09/04 04:16:01;;;;;;;12.40;6.00;;;;;;;;;;5056787;28;20411;-56
2021/09/04 04:18:27;;;;;;;14.75;7.25;;;;;;;;;;5041794;28;20419;-53
2021/09/04 04:20:53;;;;;;;14.45;7.50;;;;;;;;;;5049375;28;20401;-55
2021/09/04 04:23:19;;;;;;;14.57;7.60;;;;;;;;;;5068407;28;20384;-56
2021/09/04 04:25:45;;;;;;;14.32;7.22;;;;;;;;;;5055220;28;20404;-58
2021/09/04 04:28:11;;;;;;;13.27;7.13;;;;;;;;;;5049755;28;20401;-55
2021/09/04 04:30:37;;;;;;;13.52;7.07;;;;;;;;;;5048408;28;20797;-57
2021/09/04 04:33:03;;;;;;;15.98;8.02;;;;;;;;;;5050230;28;20397;-54
2021/09/04 04:35:29;;;;;;;13.23;6.85;;;;;;;;;;5047024;28;20500;-55
2021/09/04 04:37:55;;;;;;;12.23;6.03;;;;;;;;;;5047400;28;20429;-55
2021/09/04 04:40:21;;;;;;;12.13;6.43;;;;;;;;;;5035428;28;20851;-57
2021/09/04 04:42:47;;;;;;;14.13;7.27;;;;;;;;;;5045182;28;20449;-53
2021/09/04 04:45:12;;;;;;;13.73;7.07;;;;;;;;;;5048982;28;20488;-54
2021/09/04 04:47:38;;;;;;;14.45;7.30;;;;;;;;;;5043642;28;20963;-56
2021/09/04 04:50:05;;;;;;;13.57;6.57;;;;;;;;;;5035321;28;20402;-55
2021/09/04 04:52:31;;;;;;;13.23;7.00;;;;;;;;;;5037852;28;20881;-56
2021/09/04 04:54:57;;;;;;;16.50;8.07;;;;;;;;;;5048002;28;20378;-56
2021/09/04 04:57:23;;;;;;;12.68;6.57;;;;;;;;;;5051426;28;20461;-54
2021/09/04 04:59:49;;;;;;;13.48;7.13;;;;;;;;;;5043823;28;20468;-54
2021/09/04 05:02:15;;;;;;;14.98;7.40;;;;;;;;;;5055485;28;20790;-56
2021/09/04 05:04:41;;;;;;;14.60;7.45;;;;;;;;;;5047680;28;20393;-54
2021/09/04 05:07:07;;;;;;;12.63;6.10;;;;;;;;;;5054955;28;20399;-56
2021/09/04 05:09:33;;;;;;;14.93;6.85;;;;;;;;;;5046392;28;20480;-55
2021/09/04 05:11:59;;;;;;;11.27;5.95;;;;;;;;;;5050687;28;20395;-56
2021/09/04 05:14:25;;;;;;;11.73;6.30;;;;;;;;;;5042607;28;20432;-55
2021/09/04 05:16:51;;;;;;;11.60;6.22;;;;;;;;;;5045610;28;20890;-57
2021/09/04 05:19:17;;;;;;;13.98;7.07;;;;;;;;;;5044785;28;20805;-53
2021/09/04 05:21:43;;;;;;;13.50;7.03;;;;;;;;;;5046940;28;20394;-56
2021/09/04 05:24:09;;;;;;;13.13;6.60;;;;;;;;;;5053609;28;20459;-55
2021/09/04 05:26:35;;;;;;;11.80;6.25;;;;;;;;;;5043123;28;20414;-53
2021/09/04 05:29:01;;;;;;;12.00;5.90;;;;;;;;;;5035231;28;20414;-56
2021/09/04 05:31:27;;;;;;;10.32;5.80;;;;;;;;;;5060566;28;20405;-54
2021/09/04 05:33:53;;;;;;;12.68;6.18;;;;;;;;;;5036710;28;20477;-56
2021/09/04 05:36:19;;;;;;;15.20;7.25;;;;;;;;;;5046150;28;20503;-55
2021/09/04 05:38:45;;;;;;;11.02;5.60;;;;;;;;;;5039984;28;20405;-56
2021/09/04 05:41:11;;;;;;;12.35;6.20;;;;;;;;;;5054664;28;20385;-56
2021/09/04 05:43:37;;;;;;;8.37;4.73;;;;;;;;;;5054874;28;20399;-57
2021/09/04 05:46:03;;;;;;;13.13;6.28;;;;;;;;;;5042460;28;20470;-54
2021/09/04 05:48:29;;;;;;;12.82;6.68;;;;;;;;;;5049323;28;20406;-58
2021/09/04 05:50:55;;;;;;;14.82;6.88;;;;;;;;;;5045746;28;20474;-54
2021/09/04 05:53:21;;;;;;;10.73;6.15;;;;;;;;;;5055625;28;20453;-57
2021/09/04 05:55:47;;;;;;;14.07;6.43;;;;;;;;;;5055967;28;20397;-52
2021/09/04 05:58:14;;;;;;;11.83;5.23;;;;;;;;;;5054812;28;20451;-56
2021/09/04 06:00:40;;;;;;;10.18;5.35;;;;;;;;;;5043766;28;20788;-55
2021/09/04 06:03:06;;;;;;;13.10;6.72;;;;;;;;;;5033239;28;20391;-54
2021/09/04 06:05:32;;;;;;;13.32;6.25;;;;;;;;;;5041139;28;20421;-57
2021/09/04 06:07:58;;;;;;;12.05;5.85;;;;;;;;;;5051779;28;20425;-57
2021/09/04 06:10:24;;;;;;;13.45;6.63;;;;;;;;;;5048241;28;20445;-57
2021/09/04 06:12:50;;;;;;;11.10;5.75;;;;;;;;;;5048987;28;20490;-56
2021/09/04 06:15:17;;;;;;;12.63;5.82;;;;;;;;;;5049859;28;20961;-57
2021/09/04 06:17:43;;;;;;;10.88;5.82;;;;;;;;;;5043775;28;20420;-56
2021/09/04 06:20:09;;;;;;;11.15;5.88;;;;;;;;;;5045090;28;20869;-56
2021/09/04 06:22:35;;;;;;;13.07;6.93;;;;;;;;;;5050033;28;20389;-56
2021/09/04 06:25:01;;;;;;;12.05;6.38;;;;;;;;;;5037088;28;20398;-54
2021/09/04 06:27:27;;;;;;;11.25;5.30;;;;;;;;;;5040184;28;20407;-52
2021/09/04 06:29:53;;;;;;;13.02;7.05;;;;;;;;;;5043990;28;20391;-56
2021/09/04 06:32:19;;;;;;;13.30;6.67;;;;;;;;;;5046669;28;20421;-57
2021/09/04 06:34:45;;;;;;;12.13;5.82;;;;;;;;;;5044332;28;20881;-57
2021/09/04 06:37:11;;;;;;;11.70;6.07;;;;;;;;;;5046566;28;20409;-55
2021/09/04 06:39:37;;;;;;;12.23;6.75;;;;;;;;;;5051017;28;20407;-54
2021/09/04 06:42:03;;;;;;;13.88;7.13;;;;;;;;;;5058030;28;20486;-54
2021/09/04 06:44:29;;;;;;;15.10;7.18;;;;;;;;;;5055686;28;20452;-53
2021/09/04 06:46:55;;;;;;;10.75;5.38;;;;;;;;;;5045604;28;20438;-53
2021/09/04 06:49:21;;;;;;;12.30;6.03;;;;;;;;;;5041174;28;20434;-55
2021/09/04 06:51:47;;;;;;;10.88;5.57;;;;;;;;;;5022459;28;20454;-54
2021/09/04 06:54:13;;;;;;;13.63;6.55;;;;;;;;;;5037034;28;20401;-54
2021/09/04 06:56:39;;;;;;;11.95;5.53;;;;;;;;;;5037515;28;20517;-52
2021/09/04 06:59:05;;;;;;;12.32;6.15;;;;;;;;;;5043015;28;20405;-54
2021/09/04 07:01:31;;;;;;;10.50;5.60;;;;;;;;;;5046714;28;20395;-54
2021/09/04 07:03:57;;;;;;;11.70;5.90;;;;;;;;;;5046748;28;20447;-55
2021/09/04 07:06:23;;;;;;;9.75;5.30;;;;;;;;;;5044786;28;20403;-57
2021/09/04 07:08:49;;;;;;;12.73;6.53;;;;;;;;;;5040361;28;20404;-55
2021/09/04 07:11:15;;;;;;;9.13;5.22;;;;;;;;;;5052438;28;20405;-54
2021/09/04 07:13:41;;;;;;;9.30;5.03;;;;;;;;;;5043849;28;20884;-53
2021/09/04 07:16:07;;;;;;;14.18;6.50;;;;;;;;;;5048141;28;20573;-56
2021/09/04 07:18:33;;;;;;;10.35;5.60;;;;;;;;;;5055311;28;20421;-56
2021/09/04 07:20:59;;;;;;;14.32;6.85;;;;;;;;;;5046496;28;20430;-55
2021/09/04 07:23:25;;;;;;;10.82;6.03;;;;;;;;;;5041128;28;20450;-54
2021/09/04 07:25:51;;;;;;;11.23;5.75;;;;;;;;;;5046004;28;20802;-54
2021/09/04 07:28:17;;;;;;;11.90;6.00;;;;;;;;;;5020000;28;20474;-57
2021/09/04 07:30:43;;;;;;;13.07;6.55;;;;;;;;;;5041778;28;20414;-57
2021/09/04 07:33:09;;;;;;;11.15;5.63;;;;;;;;;;5049752;28;20389;-56
2021/09/04 07:35:35;;;;;;;11.63;5.45;;;;;;;;;;5045646;28;20393;-55
2021/09/04 07:38:01;;;;;;;10.88;5.47;;;;;;;;;;5043359;28;20488;-54
2021/09/04 07:40:27;;;;;;;12.00;5.90;;;;;;;;;;5052274;28;20836;-55
2021/09/04 07:42:53;;;;;;;13.00;6.60;;;;;;;;;;5027596;28;20488;-54
2021/09/04 07:45:19;;;;;;;12.20;6.07;;;;;;;;;;5045351;28;20392;-54
2021/09/04 07:47:45;;;;;;;13.05;6.45;;;;;;;;;;5043075;28;20490;-54
2021/09/04 07:50:11;;;;;;;11.93;6.07;;;;;;;;;;5042664;28;20786;-53
2021/09/04 07:52:37;;;;;;;11.52;6.20;;;;;;;;;;5048765;28;20399;-57
2021/09/04 07:55:03;;;;;;;12.23;6.20;;;;;;;;;;5043447;28;20448;-58
2021/09/04 07:57:29;;;;;;;13.70;6.60;;;;;;;;;;5052739;28;20415;-58
2021/09/04 07:59:56;;;;;;;11.52;5.88;;;;;;;;;;5055220;28;20411;-56
2021/09/04 08:02:22;;;;;;;11.73;5.72;;;;;;;;;;5053160;28;20413;-53
2021/09/04 08:04:48;;;;;;;14.00;6.40;;;;;;;;;;5054660;28;20737;-54
2021/09/04 08:07:14;;;;;;;14.15;6.47;;;;;;;;;;5046826;28;20389;-54
2021/09/04 08:09:40;;;;;;;9.17;5.23;;;;;;;;;;5036830;28;20482;-54
2021/09/04 08:12:06;;;;;;;14.90;6.05;;;;;;;;;;5050886;28;20391;-52
2021/09/04 08:14:32;;;;;;;14.18;6.47;;;;;;;;;;5048920;28;20450;-54
2021/09/04 08:16:58;;;;;;;13.57;6.93;;;;;;;;;;5043049;28;20715;-53
2021/09/04 08:19:24;;;;;;;14.82;6.45;;;;;;;;;;5045137;28;20399;-55
2021/09/04 08:21:50;;;;;;;13.13;6.32;;;;;;;;;;5043119;28;20387;-55
2021/09/04 08:24:16;;;;;;;14.23;6.87;;;;;;;;;;5043495;28;20409;-56
2021/09/04 08:26:43;;;;;;;11.20;5.90;;;;;;;;;;5044709;28;20707;-57
2021/09/04 08:29:09;;;;;;;16.38;7.47;;;;;;;;;;5048596;28;20869;-55
2021/09/04 08:31:35;;;;;;;19.00;7.55;;;;;;;;;;5038696;28;20409;-56
2021/09/04 08:34:01;;;;;;;12.02;6.22;;;;;;;;;;5050867;28;20399;-56
2021/09/04 08:36:27;;;;;;;12.48;6.22;;;;;;;;;;5043903;28;20471;-57
2021/09/04 08:38:53;;;;;;;13.88;7.28;;;;;;;;;;5048725;28;20467;-57
2021/09/04 08:41:19;;;;;;;14.53;7.07;;;;;;;;;;5048001;28;20533;-58
2021/09/04 08:43:46;;;;;;;16.23;7.30;;;;;;;;;;5047389;28;20405;-52
2021/09/04 08:46:14;;;;;;;15.07;6.73;;;;;;;;;;5046730;28;20873;-56
2021/09/04 08:48:42;;;;;;;16.25;7.03;;;;;;;;;;5034284;28;20912;-56
2021/09/04 08:51:08;;;;;;;13.25;7.00;;;;;;;;;;5025474;28;20467;-55
2021/09/04 08:53:34;;;;;;;15.60;7.68;;;;;;;;;;5052149;28;20892;-57
2021/09/04 08:56:00;;;;;;;17.30;7.95;;;;;;;;;;5050389;28;20455;-54
2021/09/04 08:58:26;;;;;;;16.30;6.97;;;;;;;;;;5050556;28;20468;-56
2021/09/04 09:00:52;;;;;;;17.40;8.02;;;;;;;;;;5047305;28;20382;-54
2021/09/04 09:03:24;;;;;;;16.10;6.87;;;;;;;;;;5048583;28;20485;-55
2021/09/04 09:05:50;;;;;;;16.88;6.68;;;;;;;;;;5043370;28;20730;-56
2021/09/04 09:08:17;;;;;;;15.02;7.22;;;;;;;;;;5038153;28;20866;-55
2021/09/04 09:10:44;;;;;;;15.93;7.17;;;;;;;;;;5048108;28;20393;-58
2021/09/04 09:13:15;;;;;;;13.63;6.20;;;;;;;;;;5047327;28;20397;-58
2021/09/04 09:15:41;;;;;;;12.87;6.23;;;;;;;;;;5044997;28;20399;-58
2021/09/04 09:18:11;;;;;;;17.88;7.28;;;;;;;;;;5046714;28;20904;-58
2021/09/04 09:20:38;;;;;;;12.60;6.30;;;;;;;;;;5044228;28;20389;-56
2021/09/04 09:23:12;;;;;;;15.25;6.95;;;;;;;;;;5054550;28;20547;-59
2021/09/04 09:25:40;;;;;;;12.27;6.15;;;;;;;;;;5047825;28;20395;-58
2021/09/04 09:28:10;;;;;;;12.05;5.95;;;;;;;;;;5053276;28;20391;-56
2021/09/04 09:30:37;;;;;;;15.18;6.35;;;;;;;;;;5048456;28;20394;-55
2021/09/04 09:33:04;;;;;;;13.98;5.57;;;;;;;;;;5043873;28;20407;-54
2021/09/04 09:35:30;;;;;;;13.23;5.93;;;;;;;;;;5050474;28;20417;-57
2021/09/04 09:37:56;;;;;;;13.35;5.75;;;;;;;;;;5043982;28;20507;-55
2021/09/04 09:40:26;;;;;;;11.70;5.72;;;;;;;;;;5037582;28;20396;-54
2021/09/04 09:42:52;;;;;;;15.90;6.05;;;;;;;;;;5048540;28;20740;-57
2021/09/04 09:45:18;;;;;;;9.77;4.90;;;;;;;;;;5043542;28;20834;-56
2021/09/04 09:47:51;;;;;;;11.00;5.10;;;;;;;;;;5043887;28;20416;-54
2021/09/04 09:50:17;;;;;;;13.98;6.15;;;;;;;;;;5043479;28;20934;-56
2021/09/04 09:52:44;;;;;;;11.73;5.37;;;;;;;;;;5044612;28;20415;-54
2021/09/04 09:55:11;;;;;;;10.25;4.82;;;;;;;;;;5052215;28;20432;-53
2021/09/04 09:57:39;;;;;;;14.18;5.85;;;;;;;;;;5053192;28;20417;-58
2021/09/04 10:00:06;;;;;;;14.30;5.57;;;;;;;;;;5037898;28;20486;-55
2021/09/04 10:02:33;;;;;;;13.70;5.40;;;;;;;;;;5045300;28;20496;-54
2021/09/04 10:04:59;;;;;;;11.33;5.30;;;;;;;;;;5042143;28;20802;-56
2021/09/04 10:07:25;;;;;;;13.55;6.15;;;;;;;;;;5046942;28;20431;-55
2021/09/04 10:09:51;;;;;;;14.82;6.05;;;;;;;;;;5052287;28;20396;-58
2021/09/04 10:12:17;;;;;;;11.00;5.25;;;;;;;;;;5049968;28;20854;-58
2021/09/04 10:14:45;;;;;;;10.95;5.32;;;;;;;;;;5054172;28;20915;-58
2021/09/04 10:17:12;;;;;;;9.95;4.95;;;;;;;;;;5060167;28;20502;-56
2021/09/04 10:19:39;;;;;;;12.10;5.23;;;;;;;;;;5046229;28;20477;-55
2021/09/04 10:22:06;;;;;;;11.38;5.00;;;;;;;;;;5051842;28;20917;-58
2021/09/04 10:24:48;;;;;;;13.00;5.22;;;;;;;;;;5050680;28;20481;-57
2021/09/04 10:27:15;;;;;;;11.07;5.22;;;;;;;;;;5055843;28;20430;-55
2021/09/04 10:29:45;;;;;;;9.20;5.00;;;;;;;;;;5057049;28;20394;-58
2021/09/04 10:32:21;;;;;;;10.00;4.83;;;;;;;;;;5050555;28;20494;-55
2021/09/04 10:34:48;;;;;;;8.73;4.20;;;;;;;;;;5055193;28;20394;-58
2021/09/04 10:37:14;;;;;;;10.38;5.53;;;;;;;;;;5058071;28;20416;-56
2021/09/04 10:39:55;;;;;;;11.55;5.28;;;;;;;;;;5042097;28;20397;-57
2021/09/04 10:42:26;;;;;;;10.07;5.20;;;;;;;;;;5059257;28;20399;-56
2021/09/04 10:44:55;;;;;;;10.20;4.80;;;;;;;;;;5046734;28;20400;-55
2021/09/04 10:47:21;;;;;;;10.45;4.90;;;;;;;;;;5043014;28;20434;-55
2021/09/04 10:49:56;;;;;;;9.88;5.53;;;;;;;;;;5041533;28;20403;-57
2021/09/04 10:52:53;;;;;;;8.73;4.30;;;;;;;;;;5037904;28;20405;-55
2021/09/04 10:55:26;;;;;;;10.23;5.05;;;;;;;;;;5055765;28;20388;-53
2021/09/04 10:57:53;;;;;;;9.57;4.80;;;;;;;;;;5030116;28;20412;-55
2021/09/04 11:00:26;;;;;;;8.68;4.75;;;;;;;;;;5048154;28;20543;-57
2021/09/04 11:03:01;;;;;;;12.25;5.80;;;;;;;;;;5040448;28;20392;-57
2021/09/04 11:05:28;;;;;;;11.25;5.45;;;;;;;;;;5039962;28;20387;-56
2021/09/04 11:08:04;;;;;;;9.07;4.80;;;;;;;;;;5051513;28;20409;-55
2021/09/04 11:10:30;;;;;;;9.60;4.65;;;;;;;;;;5049423;28;20401;-57
2021/09/04 11:13:04;;;;;;;14.60;5.70;;;;;;;;;;5041381;28;20399;-55
2021/09/04 11:15:31;;;;;;;9.85;5.55;;;;;;;;;;5045823;28;20953;-54
2021/09/04 11:17:57;;;;;;;10.88;5.10;;;;;;;;;;5038867;28;20746;-58
2021/09/04 11:20:24;;;;;;;11.95;5.30;;;;;;;;;;5051600;28;20404;-52
2021/09/04 11:22:50;;;;;;;8.35;4.07;;;;;;;;;;5042282;28;20415;-57
2021/09/04 11:25:17;;;;;;;12.07;5.60;;;;;;;;;;5053324;28;20919;-56
2021/09/04 11:27:46;;;;;;;9.93;5.30;;;;;;;;;;5049306;28;20478;-58
2021/09/04 11:30:16;;;;;;;10.05;4.47;;;;;;;;;;5043665;28;20490;-54
2021/09/04 11:32:42;;;;;;;11.00;4.63;;;;;;;;;;5060174;28;20402;-54
2021/09/04 11:35:08;;;;;;;10.00;5.10;;;;;;;;;;5047175;28;20399;-56
2021/09/04 11:37:35;;;;;;;9.98;4.32;;;;;;;;;;5043162;28;20426;-54
2021/09/04 11:40:04;;;;;;;13.10;5.40;;;;;;;;;;5047041;28;20400;-54
2021/09/04 11:42:31;;;;;;;9.43;4.40;;;;;;;;;;5047259;28;20799;-55
2021/09/04 11:45:03;;;;;;;10.25;5.07;;;;;;;;;;5053971;28;20450;-57
2021/09/04 11:47:29;;;;;;;8.45;4.30;;;;;;;;;;5044043;28;20418;-52
2021/09/04 11:49:56;;;;;;;8.50;4.60;;;;;;;;;;5049815;28;20849;-58
2021/09/04 11:52:30;;;;;;;10.50;4.65;;;;;;;;;;5048092;28;20438;-58
2021/09/04 11:55:03;;;;;;;9.90;4.47;;;;;;;;;;5049203;28;20397;-56
2021/09/04 11:57:31;;;;;;;9.75;4.72;;;;;;;;;;5060295;28;20405;-58
2021/09/04 11:59:57;;;;;;;9.93;4.20;;;;;;;;;;5047517;28;20456;-57
2021/09/04 12:02:24;;;;;;;7.00;3.42;;;;;;;;;;5064686;28;20397;-57
2021/09/04 12:04:50;;;;;;;9.05;4.70;;;;;;;;;;5056585;28;20913;-58
2021/09/04 12:07:16;;;;;;;8.33;3.93;;;;;;;;;;5063708;28;20395;-58
2021/09/04 12:09:43;;;;;;;8.43;3.95;;;;;;;;;;5047375;28;20468;-56
2021/09/04 12:12:09;;;;;;;7.77;4.83;;;;;;;;;;5050762;28;20415;-58
2021/09/04 12:14:35;;;;;;;6.65;3.90;;;;;;;;;;5052750;28;20470;-54
2021/09/04 12:17:01;;;;;;;7.32;3.50;;;;;;;;;;5053701;28;20433;-58
2021/09/04 12:19:37;;;;;;;6.70;3.17;;;;;;;;;;5052032;28;20878;-57
2021/09/04 12:22:03;;;;;;;9.38;4.07;;;;;;;;;;5051909;28;20456;-55
2021/09/04 12:24:32;;;;;;;7.97;3.55;;;;;;;;;;5047926;28;20422;-56
2021/09/04 12:26:58;;;;;;;8.60;4.55;;;;;;;;;;5043282;28;20930;-54
2021/09/04 12:29:28;;;;;;;10.90;4.60;;;;;;;;;;5057812;28;20397;-54
2021/09/04 12:32:04;;;;;;;7.70;4.00;;;;;;;;;;5042539;28;20391;-55
2021/09/04 12:34:30;;;;;;;10.57;4.47;;;;;;;;;;5041404;28;20421;-57
2021/09/04 12:36:56;;;;;;;7.47;3.70;;;;;;;;;;5055197;28;20863;-56
2021/09/04 12:39:23;;;;;;;7.45;4.18;;;;;;;;;;5051366;28;20919;-54
2021/09/04 12:41:59;;;;;;;6.65;3.80;;;;;;;;;;5048498;28;20427;-55
2021/09/04 12:44:34;;;;;;;7.93;3.80;;;;;;;;;;5051424;28;20441;-55
2021/09/04 12:47:02;;;;;;;9.85;4.65;;;;;;;;;;5050049;28;20385;-54
2021/09/04 12:49:32;;;;;;;8.05;3.80;;;;;;;;;;5045544;28;20395;-53
2021/09/04 12:52:08;;;;;;;11.23;4.63;;;;;;;;;;5044391;28;20382;-56
2021/09/04 12:54:34;;;;;;;9.15;4.05;;;;;;;;;;5055473;28;20386;-54
2021/09/04 12:57:11;;;;;;;9.10;4.75;;;;;;;;;;5057733;28;20768;-55
2021/09/04 12:59:41;;;;;;;9.00;4.00;;;;;;;;;;5048004;28;20381;-54
2021/09/04 13:02:11;;;;;;;9.50;4.20;;;;;;;;;;5044736;28;20373;-57
2021/09/04 13:04:37;;;;;;;8.05;4.00;;;;;;;;;;5054289;28;20372;-57
2021/09/04 13:07:03;;;;;;;9.15;4.65;;;;;;;;;;5051021;28;20933;-56
2021/09/04 13:09:29;;;;;;;7.82;4.07;;;;;;;;;;5045367;28;20397;-57
2021/09/04 13:11:55;;;;;;;6.80;3.23;;;;;;;;;;5051747;28;20397;-57
2021/09/04 13:14:21;;;;;;;8.73;3.90;;;;;;;;;;5050418;28;20388;-57
2021/09/04 13:16:47;;;;;;;6.32;3.65;;;;;;;;;;5051550;28;20442;-55
2021/09/04 13:19:13;;;;;;;8.55;4.22;;;;;;;;;;5048531;28;20563;-57
2021/09/04 13:21:39;;;;;;;6.67;3.70;;;;;;;;;;5042312;28;20492;-53
2021/09/04 13:24:05;;;;;;;7.72;3.70;;;;;;;;;;5046097;28;20405;-57
2021/09/04 13:26:31;;;;;;;7.28;3.58;;;;;;;;;;5050759;28;20403;-56
2021/09/04 13:28:57;;;;;;;7.80;3.75;;;;;;;;;;5038919;28;20901;-55
2021/09/04 13:31:24;;;;;;;7.13;3.53;;;;;;;;;;5036392;28;20812;-53
2021/09/04 13:33:50;;;;;;;7.53;3.40;;;;;;;;;;5031355;28;20402;-51
2021/09/04 13:36:16;;;;;;;6.57;3.47;;;;;;;;;;5033917;28;20489;-54
2021/09/04 13:38:42;;;;;;;7.05;3.50;;;;;;;;;;5034038;28;20482;-55
2021/09/04 13:41:08;;;;;;;6.70;2.93;;;;;;;;;;5013741;28;20490;-55
2021/09/04 13:43:34;;;;;;;8.40;4.25;;;;;;;;;;5035396;28;20806;-53
2021/09/04 13:46:00;;;;;;;8.87;3.83;;;;;;;;;;5034612;28;20557;-55
2021/09/04 13:48:26;;;;;;;7.15;3.20;;;;;;;;;;5032191;28;20889;-55
2021/09/04 13:50:52;;;;;;;7.82;3.55;;;;;;;;;;5037465;28;20395;-56
2021/09/04 13:53:20;;;;;;;5.45;3.08;;;;;;;;;;5035677;28;20390;-55
2021/09/04 13:55:46;;;;;;;7.10;2.95;;;;;;;;;;5035995;28;20414;-57
2021/09/04 13:58:12;;;;;;;4.53;2.60;;;;;;;;;;5040702;28;20421;-57
2021/09/04 14:00:40;;;;;;;4.88;2.42;;;;;;;;;;5056938;28;20395;-52
2021/09/04 14:03:06;;;;;;;5.80;2.47;;;;;;;;;;5041074;28;20387;-57
2021/09/04 14:05:32;;;;;;;6.05;2.63;;;;;;;;;;5038365;28;20402;-57
2021/09/04 14:07:58;;;;;;;4.63;2.25;;;;;;;;;;5042538;28;20498;-55
2021/09/04 14:10:24;;;;;;;4.75;2.40;;;;;;;;;;5036260;28;20400;-52
2021/09/04 14:12:50;;;;;;;4.88;2.40;;;;;;;;;;5043810;28;20398;-56
2021/09/04 14:15:16;;;;;;;5.45;2.65;;;;;;;;;;5041811;28;21820;-57
2021/09/04 14:17:42;;;;;;;5.57;2.47;;;;;;;;;;5037407;28;20419;-52
2021/09/04 14:20:08;;;;;;;4.90;1.83;;;;;;;;;;5043417;28;20459;-53
2021/09/04 14:22:34;;;;;;;4.78;2.47;;;;;;;;;;5045283;28;20731;-54
2021/09/04 14:25:00;;;;;;;4.28;2.35;;;;;;;;;;5054703;28;20439;-54
2021/09/04 14:27:29;;;;;;;5.65;2.42;;;;;;;;;;5047782;28;20880;-53
2021/09/04 14:29:55;;;;;;;5.00;2.70;;;;;;;;;;5036115;28;20533;-52
2021/09/04 14:32:21;;;;;;;6.53;2.47;;;;;;;;;;5054266;28;20480;-53